sensor_id;sensor_type;location;lat;lon;timestamp;P1;durP1;ratioP1;P2;durP2;ratioP2
44440;SDS011;30146;52.268;20.944;2023-04-15T00:02:15;11.80;;;8.20;;
44440;SDS011;30146;52.268;20.944;2023-04-15T00:04:48;11.80;;;8.40;;
44440;SDS011;30146;52.268;20.944;2023-04-15T00:07:19;12.00;;;8.30;;
44440;SDS011;30146;52.268;20.944;2023-04-15T00:09:50;12.50;;;9.30;;
44440;SDS011;30146;52.268;20.944;2023-04-15T00:12:23;11.90;;;8.70;;
44440;SDS011;30146;52.268;20.944;2023-04-15T00:14:55;12.30;;;8.40;;
44440;SDS011;30146;52.268;20.944;2023-04-15T00:17:27;10.60;;;8.10;;
44440;SDS011;30146;52.268;20.944;2023-04-15T00:19:58;10.50;;;7.60;;
44440;SDS011;30146;52.268;20.944;2023-04-15T00:22:35;14.10;;;8.00;;
44440;SDS011;30146;52.268;20.944;2023-04-15T00:25:07;10.20;;;7.90;;
44440;SDS011;30146;52.268;20.944;2023-04-15T00:27:38;11.30;;;8.40;;
44440;SDS011;30146;52.268;20.944;2023-04-15T00:30:10;14.10;;;8.50;;
44440;SDS011;30146;52.268;20.944;2023-04-15T00:32:42;12.70;;;8.00;;
44440;SDS011;30146;52.268;20.944;2023-04-15T00:35:13;12.20;;;9.50;;
44440;SDS011;30146;52.268;20.944;2023-04-15T00:37:45;11.70;;;9.00;;
44440;SDS011;30146;52.268;20.944;2023-04-15T00:40:16;11.10;;;8.20;;
44440;SDS011;30146;52.268;20.944;2023-04-15T00:42:51;13.90;;;9.60;;
44440;SDS011;30146;52.268;20.944;2023-04-15T00:45:23;11.00;;;8.00;;
44440;SDS011;30146;52.268;20.944;2023-04-15T00:47:55;13.60;;;8.20;;
44440;SDS011;30146;52.268;20.944;2023-04-15T00:50:27;15.30;;;8.60;;
44440;SDS011;30146;52.268;20.944;2023-04-15T00:52:58;12.60;;;8.30;;
44440;SDS011;30146;52.268;20.944;2023-04-15T00:55:29;11.90;;;8.90;;
44440;SDS011;30146;52.268;20.944;2023-04-15T00:58:00;13.00;;;8.40;;
44440;SDS011;30146;52.268;20.944;2023-04-15T01:00:32;11.50;;;8.40;;
44440;SDS011;30146;52.268;20.944;2023-04-15T01:03:03;10.40;;;8.90;;
44440;SDS011;30146;52.268;20.944;2023-04-15T01:05:35;12.20;;;8.20;;
44440;SDS011;30146;52.268;20.944;2023-04-15T01:08:07;11.40;;;8.30;;
44440;SDS011;30146;52.268;20.944;2023-04-15T01:10:38;10.80;;;8.70;;
44440;SDS011;30146;52.268;20.944;2023-04-15T01:13:10;10.80;;;8.30;;
44440;SDS011;30146;52.268;20.944;2023-04-15T01:15:41;11.90;;;8.70;;
44440;SDS011;30146;52.268;20.944;2023-04-15T01:18:14;13.40;;;8.90;;
44440;SDS011;30146;52.268;20.944;2023-04-15T01:20:45;12.60;;;9.20;;
44440;SDS011;30146;52.268;20.944;2023-04-15T01:23:16;13.50;;;10.20;;
44440;SDS011;30146;52.268;20.944;2023-04-15T01:25:53;11.60;;;8.60;;
44440;SDS011;30146;52.268;20.944;2023-04-15T01:28:25;11.40;;;9.00;;
44440;SDS011;30146;52.268;20.944;2023-04-15T01:31:07;12.80;;;9.10;;
44440;SDS011;30146;52.268;20.944;2023-04-15T01:33:40;10.30;;;8.20;;
44440;SDS011;30146;52.268;20.944;2023-04-15T01:36:14;14.00;;;9.50;;
44440;SDS011;30146;52.268;20.944;2023-04-15T01:38:46;12.80;;;9.90;;
44440;SDS011;30146;52.268;20.944;2023-04-15T01:41:17;12.40;;;9.70;;
44440;SDS011;30146;52.268;20.944;2023-04-15T01:43:53;13.10;;;9.60;;
44440;SDS011;30146;52.268;20.944;2023-04-15T01:46:24;13.90;;;10.10;;
44440;SDS011;30146;52.268;20.944;2023-04-15T01:48:56;11.30;;;8.20;;
44440;SDS011;30146;52.268;20.944;2023-04-15T01:51:27;12.00;;;10.00;;
44440;SDS011;30146;52.268;20.944;2023-04-15T01:54:00;12.20;;;9.80;;
44440;SDS011;30146;52.268;20.944;2023-04-15T01:59:04;14.40;;;9.90;;
44440;SDS011;30146;52.268;20.944;2023-04-15T02:01:43;13.80;;;10.80;;
44440;SDS011;30146;52.268;20.944;2023-04-15T02:04:14;11.50;;;10.10;;
44440;SDS011;30146;52.268;20.944;2023-04-15T02:06:45;14.10;;;10.20;;
44440;SDS011;30146;52.268;20.944;2023-04-15T02:09:16;12.20;;;9.40;;
44440;SDS011;30146;52.268;20.944;2023-04-15T02:11:48;11.90;;;10.50;;
44440;SDS011;30146;52.268;20.944;2023-04-15T02:14:20;11.90;;;9.50;;
44440;SDS011;30146;52.268;20.944;2023-04-15T02:16:52;12.30;;;10.50;;
44440;SDS011;30146;52.268;20.944;2023-04-15T02:19:27;11.50;;;9.90;;
44440;SDS011;30146;52.268;20.944;2023-04-15T02:21:58;15.20;;;11.50;;
44440;SDS011;30146;52.268;20.944;2023-04-15T02:24:30;16.00;;;11.70;;
44440;SDS011;30146;52.268;20.944;2023-04-15T02:27:03;14.00;;;10.70;;
44440;SDS011;30146;52.268;20.944;2023-04-15T02:29:50;15.50;;;11.30;;
44440;SDS011;30146;52.268;20.944;2023-04-15T02:32:25;17.50;;;12.10;;
44440;SDS011;30146;52.268;20.944;2023-04-15T02:35:02;12.00;;;9.90;;
44440;SDS011;30146;52.268;20.944;2023-04-15T02:37:57;12.30;;;10.10;;
44440;SDS011;30146;52.268;20.944;2023-04-15T02:40:31;13.90;;;11.10;;
44440;SDS011;30146;52.268;20.944;2023-04-15T02:43:28;14.00;;;10.90;;
44440;SDS011;30146;52.268;20.944;2023-04-15T02:46:00;14.40;;;11.10;;
44440;SDS011;30146;52.268;20.944;2023-04-15T02:48:32;14.60;;;11.40;;
44440;SDS011;30146;52.268;20.944;2023-04-15T02:51:16;17.20;;;11.80;;
44440;SDS011;30146;52.268;20.944;2023-04-15T02:53:50;14.10;;;12.00;;
44440;SDS011;30146;52.268;20.944;2023-04-15T02:56:21;19.40;;;12.30;;
44440;SDS011;30146;52.268;20.944;2023-04-15T02:58:52;15.10;;;10.90;;
44440;SDS011;30146;52.268;20.944;2023-04-15T03:01:24;18.80;;;10.70;;
44440;SDS011;30146;52.268;20.944;2023-04-15T03:03:59;13.80;;;11.20;;
44440;SDS011;30146;52.268;20.944;2023-04-15T03:06:33;18.90;;;12.00;;
44440;SDS011;30146;52.268;20.944;2023-04-15T03:09:07;18.10;;;11.90;;
44440;SDS011;30146;52.268;20.944;2023-04-15T03:11:39;17.50;;;11.10;;
44440;SDS011;30146;52.268;20.944;2023-04-15T03:14:10;16.50;;;11.60;;
44440;SDS011;30146;52.268;20.944;2023-04-15T03:16:44;13.80;;;10.20;;
44440;SDS011;30146;52.268;20.944;2023-04-15T03:19:18;13.80;;;10.50;;
44440;SDS011;30146;52.268;20.944;2023-04-15T03:22:06;16.10;;;10.60;;
44440;SDS011;30146;52.268;20.944;2023-04-15T03:24:40;15.90;;;11.40;;
44440;SDS011;30146;52.268;20.944;2023-04-15T03:27:12;16.30;;;10.90;;
44440;SDS011;30146;52.268;20.944;2023-04-15T03:32:17;15.70;;;10.80;;
44440;SDS011;30146;52.268;20.944;2023-04-15T03:34:56;14.30;;;11.10;;
44440;SDS011;30146;52.268;20.944;2023-04-15T03:37:27;14.00;;;10.80;;
44440;SDS011;30146;52.268;20.944;2023-04-15T03:39:58;17.80;;;11.60;;
44440;SDS011;30146;52.268;20.944;2023-04-15T03:42:29;15.50;;;11.10;;
44440;SDS011;30146;52.268;20.944;2023-04-15T03:45:00;15.10;;;10.70;;
44440;SDS011;30146;52.268;20.944;2023-04-15T03:47:31;12.70;;;10.20;;
44440;SDS011;30146;52.268;20.944;2023-04-15T03:50:03;14.90;;;11.10;;
44440;SDS011;30146;52.268;20.944;2023-04-15T03:52:36;22.40;;;12.20;;
44440;SDS011;30146;52.268;20.944;2023-04-15T03:55:07;14.10;;;10.80;;
44440;SDS011;30146;52.268;20.944;2023-04-15T03:57:39;15.50;;;12.00;;
44440;SDS011;30146;52.268;20.944;2023-04-15T04:00:11;13.10;;;11.60;;
44440;SDS011;30146;52.268;20.944;2023-04-15T04:02:42;15.40;;;11.10;;
44440;SDS011;30146;52.268;20.944;2023-04-15T04:05:14;11.80;;;9.90;;
44440;SDS011;30146;52.268;20.944;2023-04-15T04:07:45;14.30;;;10.60;;
44440;SDS011;30146;52.268;20.944;2023-04-15T04:10:16;13.90;;;10.90;;
44440;SDS011;30146;52.268;20.944;2023-04-15T04:12:48;13.90;;;10.80;;
44440;SDS011;30146;52.268;20.944;2023-04-15T04:15:19;14.50;;;11.40;;
44440;SDS011;30146;52.268;20.944;2023-04-15T04:17:50;14.80;;;9.40;;
44440;SDS011;30146;52.268;20.944;2023-04-15T04:20:21;14.50;;;11.00;;
44440;SDS011;30146;52.268;20.944;2023-04-15T04:22:52;12.80;;;10.50;;
44440;SDS011;30146;52.268;20.944;2023-04-15T04:25:24;14.90;;;11.60;;
44440;SDS011;30146;52.268;20.944;2023-04-15T04:27:55;13.30;;;10.20;;
44440;SDS011;30146;52.268;20.944;2023-04-15T04:30:26;13.70;;;10.10;;
44440;SDS011;30146;52.268;20.944;2023-04-15T04:32:57;14.10;;;10.90;;
44440;SDS011;30146;52.268;20.944;2023-04-15T04:35:28;17.00;;;10.50;;
44440;SDS011;30146;52.268;20.944;2023-04-15T04:38:02;15.90;;;10.30;;
44440;SDS011;30146;52.268;20.944;2023-04-15T04:40:33;12.40;;;10.10;;
44440;SDS011;30146;52.268;20.944;2023-04-15T04:43:04;14.50;;;10.50;;
44440;SDS011;30146;52.268;20.944;2023-04-15T04:45:36;15.00;;;11.60;;
44440;SDS011;30146;52.268;20.944;2023-04-15T04:48:07;14.30;;;10.60;;
44440;SDS011;30146;52.268;20.944;2023-04-15T04:50:38;17.60;;;13.10;;
44440;SDS011;30146;52.268;20.944;2023-04-15T04:53:09;13.60;;;10.10;;
44440;SDS011;30146;52.268;20.944;2023-04-15T04:55:41;18.10;;;12.10;;
44440;SDS011;30146;52.268;20.944;2023-04-15T04:58:12;12.70;;;10.40;;
44440;SDS011;30146;52.268;20.944;2023-04-15T05:00:43;15.00;;;10.90;;
44440;SDS011;30146;52.268;20.944;2023-04-15T05:03:19;13.70;;;10.20;;
44440;SDS011;30146;52.268;20.944;2023-04-15T05:05:51;13.40;;;11.00;;
44440;SDS011;30146;52.268;20.944;2023-04-15T05:08:23;15.10;;;10.60;;
44440;SDS011;30146;52.268;20.944;2023-04-15T05:10:54;15.40;;;10.90;;
44440;SDS011;30146;52.268;20.944;2023-04-15T05:13:26;14.60;;;10.60;;
44440;SDS011;30146;52.268;20.944;2023-04-15T05:15:57;16.30;;;10.60;;
44440;SDS011;30146;52.268;20.944;2023-04-15T05:18:28;14.70;;;10.80;;
44440;SDS011;30146;52.268;20.944;2023-04-15T05:21:00;15.30;;;10.60;;
44440;SDS011;30146;52.268;20.944;2023-04-15T05:23:32;13.90;;;10.60;;
44440;SDS011;30146;52.268;20.944;2023-04-15T05:26:03;14.10;;;10.10;;
44440;SDS011;30146;52.268;20.944;2023-04-15T05:28:34;14.40;;;10.60;;
44440;SDS011;30146;52.268;20.944;2023-04-15T05:31:05;14.20;;;10.30;;
44440;SDS011;30146;52.268;20.944;2023-04-15T05:33:37;13.70;;;10.20;;
44440;SDS011;30146;52.268;20.944;2023-04-15T05:36:08;11.50;;;8.20;;
44440;SDS011;30146;52.268;20.944;2023-04-15T05:38:40;11.80;;;9.60;;
44440;SDS011;30146;52.268;20.944;2023-04-15T05:41:11;10.90;;;9.30;;
44440;SDS011;30146;52.268;20.944;2023-04-15T05:43:46;13.40;;;10.50;;
44440;SDS011;30146;52.268;20.944;2023-04-15T05:46:18;15.80;;;10.30;;
44440;SDS011;30146;52.268;20.944;2023-04-15T05:48:49;11.70;;;9.10;;
44440;SDS011;30146;52.268;20.944;2023-04-15T05:51:23;11.80;;;9.40;;
44440;SDS011;30146;52.268;20.944;2023-04-15T05:53:54;13.70;;;10.10;;
44440;SDS011;30146;52.268;20.944;2023-04-15T05:56:26;12.20;;;9.10;;
44440;SDS011;30146;52.268;20.944;2023-04-15T05:58:57;11.40;;;8.90;;
44440;SDS011;30146;52.268;20.944;2023-04-15T06:01:29;13.90;;;10.10;;
44440;SDS011;30146;52.268;20.944;2023-04-15T06:04:01;11.20;;;9.10;;
44440;SDS011;30146;52.268;20.944;2023-04-15T06:06:33;12.80;;;8.40;;
44440;SDS011;30146;52.268;20.944;2023-04-15T06:09:04;11.00;;;9.10;;
44440;SDS011;30146;52.268;20.944;2023-04-15T06:11:36;10.90;;;9.20;;
44440;SDS011;30146;52.268;20.944;2023-04-15T06:14:11;15.80;;;9.70;;
44440;SDS011;30146;52.268;20.944;2023-04-15T06:16:45;11.80;;;8.30;;
44440;SDS011;30146;52.268;20.944;2023-04-15T06:19:16;15.80;;;9.50;;
44440;SDS011;30146;52.268;20.944;2023-04-15T06:21:47;10.70;;;9.20;;
44440;SDS011;30146;52.268;20.944;2023-04-15T06:24:18;17.50;;;9.80;;
44440;SDS011;30146;52.268;20.944;2023-04-15T06:26:49;11.30;;;8.80;;
44440;SDS011;30146;52.268;20.944;2023-04-15T06:29:20;10.90;;;8.70;;
44440;SDS011;30146;52.268;20.944;2023-04-15T06:31:52;11.30;;;8.90;;
44440;SDS011;30146;52.268;20.944;2023-04-15T06:34:24;10.50;;;8.80;;
44440;SDS011;30146;52.268;20.944;2023-04-15T06:36:55;11.20;;;8.60;;
44440;SDS011;30146;52.268;20.944;2023-04-15T06:39:27;11.00;;;8.10;;
44440;SDS011;30146;52.268;20.944;2023-04-15T06:41:59;11.20;;;6.80;;
44440;SDS011;30146;52.268;20.944;2023-04-15T06:44:30;10.40;;;8.10;;
44440;SDS011;30146;52.268;20.944;2023-04-15T06:47:02;12.90;;;9.00;;
44440;SDS011;30146;52.268;20.944;2023-04-15T06:49:33;11.40;;;9.10;;
44440;SDS011;30146;52.268;20.944;2023-04-15T06:52:04;9.30;;;8.30;;
44440;SDS011;30146;52.268;20.944;2023-04-15T06:54:35;10.10;;;8.40;;
44440;SDS011;30146;52.268;20.944;2023-04-15T06:57:07;8.60;;;7.60;;
44440;SDS011;30146;52.268;20.944;2023-04-15T06:59:39;11.80;;;8.50;;
44440;SDS011;30146;52.268;20.944;2023-04-15T07:02:11;12.60;;;8.70;;
44440;SDS011;30146;52.268;20.944;2023-04-15T07:04:44;10.10;;;8.00;;
44440;SDS011;30146;52.268;20.944;2023-04-15T07:07:16;11.70;;;9.00;;
44440;SDS011;30146;52.268;20.944;2023-04-15T07:09:48;7.90;;;6.90;;
44440;SDS011;30146;52.268;20.944;2023-04-15T07:12:19;9.70;;;7.60;;
44440;SDS011;30146;52.268;20.944;2023-04-15T07:14:50;9.20;;;6.90;;
44440;SDS011;30146;52.268;20.944;2023-04-15T07:17:21;10.20;;;7.60;;
44440;SDS011;30146;52.268;20.944;2023-04-15T07:20:07;12.80;;;7.40;;
44440;SDS011;30146;52.268;20.944;2023-04-15T07:22:39;8.20;;;6.60;;
44440;SDS011;30146;52.268;20.944;2023-04-15T07:25:19;8.10;;;7.00;;
44440;SDS011;30146;52.268;20.944;2023-04-15T07:27:51;9.00;;;7.10;;
44440;SDS011;30146;52.268;20.944;2023-04-15T07:30:23;9.80;;;7.80;;
44440;SDS011;30146;52.268;20.944;2023-04-15T07:32:54;8.90;;;7.50;;
44440;SDS011;30146;52.268;20.944;2023-04-15T07:35:31;6.00;;;5.40;;
44440;SDS011;30146;52.268;20.944;2023-04-15T07:38:02;8.30;;;7.30;;
44440;SDS011;30146;52.268;20.944;2023-04-15T07:40:34;7.30;;;6.20;;
44440;SDS011;30146;52.268;20.944;2023-04-15T07:43:05;11.40;;;6.80;;
44440;SDS011;30146;52.268;20.944;2023-04-15T07:45:37;7.80;;;6.40;;
44440;SDS011;30146;52.268;20.944;2023-04-15T07:48:14;9.70;;;6.70;;
44440;SDS011;30146;52.268;20.944;2023-04-15T07:50:53;7.80;;;6.30;;
44440;SDS011;30146;52.268;20.944;2023-04-15T07:53:24;6.90;;;5.80;;
44440;SDS011;30146;52.268;20.944;2023-04-15T07:55:58;7.30;;;6.20;;
44440;SDS011;30146;52.268;20.944;2023-04-15T07:58:29;8.60;;;6.80;;
44440;SDS011;30146;52.268;20.944;2023-04-15T08:01:01;7.80;;;6.20;;
44440;SDS011;30146;52.268;20.944;2023-04-15T08:03:32;8.40;;;6.20;;
44440;SDS011;30146;52.268;20.944;2023-04-15T08:06:06;8.70;;;5.70;;
44440;SDS011;30146;52.268;20.944;2023-04-15T08:08:37;6.30;;;5.60;;
44440;SDS011;30146;52.268;20.944;2023-04-15T08:11:09;6.70;;;6.00;;
44440;SDS011;30146;52.268;20.944;2023-04-15T08:13:40;8.00;;;5.40;;
44440;SDS011;30146;52.268;20.944;2023-04-15T08:16:18;6.60;;;5.50;;
44440;SDS011;30146;52.268;20.944;2023-04-15T08:19:00;7.20;;;5.10;;
44440;SDS011;30146;52.268;20.944;2023-04-15T08:28:02;5.60;;;4.40;;
44440;SDS011;30146;52.268;20.944;2023-04-15T08:34:03;9.70;;;4.90;;
44440;SDS011;30146;52.268;20.944;2023-04-15T08:36:36;6.40;;;5.30;;
44440;SDS011;30146;52.268;20.944;2023-04-15T08:39:10;5.30;;;4.50;;
44440;SDS011;30146;52.268;20.944;2023-04-15T08:41:45;5.80;;;4.80;;
44440;SDS011;30146;52.268;20.944;2023-04-15T08:44:21;5.10;;;4.60;;
44440;SDS011;30146;52.268;20.944;2023-04-15T08:46:54;5.30;;;4.60;;
44440;SDS011;30146;52.268;20.944;2023-04-15T09:07:13;5.60;;;4.50;;
44440;SDS011;30146;52.268;20.944;2023-04-15T09:09:42;8.40;;;3.90;;
44440;SDS011;30146;52.268;20.944;2023-04-15T09:12:11;6.50;;;4.20;;
44440;SDS011;30146;52.268;20.944;2023-04-15T09:14:41;3.90;;;3.40;;
44440;SDS011;30146;52.268;20.944;2023-04-15T09:20:22;4.70;;;3.80;;
44440;SDS011;30146;52.268;20.944;2023-04-15T09:22:55;5.20;;;3.80;;
44440;SDS011;30146;52.268;20.944;2023-04-15T09:25:33;4.50;;;3.90;;
44440;SDS011;30146;52.268;20.944;2023-04-15T09:28:10;4.80;;;3.40;;
44440;SDS011;30146;52.268;20.944;2023-04-15T09:34:23;4.40;;;3.90;;
44440;SDS011;30146;52.268;20.944;2023-04-15T09:37:12;5.50;;;3.80;;
44440;SDS011;30146;52.268;20.944;2023-04-15T09:41:05;7.90;;;3.80;;
44440;SDS011;30146;52.268;20.944;2023-04-15T09:44:08;5.50;;;4.00;;
44440;SDS011;30146;52.268;20.944;2023-04-15T09:47:02;4.50;;;3.60;;
44440;SDS011;30146;52.268;20.944;2023-04-15T09:49:32;4.10;;;3.60;;
44440;SDS011;30146;52.268;20.944;2023-04-15T09:52:02;5.50;;;3.70;;
44440;SDS011;30146;52.268;20.944;2023-04-15T09:54:44;3.60;;;3.30;;
44440;SDS011;30146;52.268;20.944;2023-04-15T09:57:23;3.70;;;3.40;;
44440;SDS011;30146;52.268;20.944;2023-04-15T10:00:02;6.90;;;3.50;;
44440;SDS011;30146;52.268;20.944;2023-04-15T10:02:33;5.50;;;3.80;;
44440;SDS011;30146;52.268;20.944;2023-04-15T10:05:08;4.10;;;3.60;;
44440;SDS011;30146;52.268;20.944;2023-04-15T10:07:40;4.70;;;3.50;;
44440;SDS011;30146;52.268;20.944;2023-04-15T10:10:10;4.20;;;3.80;;
44440;SDS011;30146;52.268;20.944;2023-04-15T10:25:04;4.80;;;4.30;;
44440;SDS011;30146;52.268;20.944;2023-04-15T10:27:46;5.50;;;3.90;;
44440;SDS011;30146;52.268;20.944;2023-04-15T10:30:22;3.70;;;3.30;;
44440;SDS011;30146;52.268;20.944;2023-04-15T10:33:06;6.50;;;3.70;;
44440;SDS011;30146;52.268;20.944;2023-04-15T10:35:49;4.40;;;3.70;;
44440;SDS011;30146;52.268;20.944;2023-04-15T10:38:37;4.60;;;3.60;;
44440;SDS011;30146;52.268;20.944;2023-04-15T10:43:56;3.30;;;3.00;;
44440;SDS011;30146;52.268;20.944;2023-04-15T10:46:37;7.60;;;4.20;;
44440;SDS011;30146;52.268;20.944;2023-04-15T10:49:11;7.20;;;4.40;;
44440;SDS011;30146;52.268;20.944;2023-04-15T10:51:45;4.50;;;3.40;;
44440;SDS011;30146;52.268;20.944;2023-04-15T10:54:31;3.90;;;3.10;;
44440;SDS011;30146;52.268;20.944;2023-04-15T11:01:01;5.90;;;3.50;;
44440;SDS011;30146;52.268;20.944;2023-04-15T11:04:02;6.50;;;4.20;;
44440;SDS011;30146;52.268;20.944;2023-04-15T11:14:02;7.20;;;3.60;;
44440;SDS011;30146;52.268;20.944;2023-04-15T11:16:44;4.40;;;3.60;;
44440;SDS011;30146;52.268;20.944;2023-04-15T11:19:38;4.40;;;3.90;;
44440;SDS011;30146;52.268;20.944;2023-04-15T11:22:55;4.80;;;3.90;;
44440;SDS011;30146;52.268;20.944;2023-04-15T11:25:54;12.00;;;4.40;;
44440;SDS011;30146;52.268;20.944;2023-04-15T11:28:28;4.40;;;3.80;;
44440;SDS011;30146;52.268;20.944;2023-04-15T11:31:14;6.40;;;4.20;;
44440;SDS011;30146;52.268;20.944;2023-04-15T11:33:52;6.20;;;3.70;;
44440;SDS011;30146;52.268;20.944;2023-04-15T11:37:04;4.90;;;3.40;;
44440;SDS011;30146;52.268;20.944;2023-04-15T11:39:42;4.20;;;3.70;;
44440;SDS011;30146;52.268;20.944;2023-04-15T11:42:17;5.40;;;3.30;;
44440;SDS011;30146;52.268;20.944;2023-04-15T11:44:48;4.30;;;3.70;;
44440;SDS011;30146;52.268;20.944;2023-04-15T11:47:37;4.80;;;3.40;;
44440;SDS011;30146;52.268;20.944;2023-04-15T11:50:15;7.10;;;4.00;;
44440;SDS011;30146;52.268;20.944;2023-04-15T11:52:53;7.00;;;3.90;;
44440;SDS011;30146;52.268;20.944;2023-04-15T11:55:26;4.00;;;3.40;;
44440;SDS011;30146;52.268;20.944;2023-04-15T11:58:11;4.50;;;3.10;;
44440;SDS011;30146;52.268;20.944;2023-04-15T12:00:59;5.50;;;3.20;;
44440;SDS011;30146;52.268;20.944;2023-04-15T12:03:57;5.60;;;3.40;;
44440;SDS011;30146;52.268;20.944;2023-04-15T12:06:39;3.40;;;2.80;;
44440;SDS011;30146;52.268;20.944;2023-04-15T12:09:12;4.00;;;3.20;;
44440;SDS011;30146;52.268;20.944;2023-04-15T12:11:48;5.00;;;2.70;;
44440;SDS011;30146;52.268;20.944;2023-04-15T12:14:25;4.90;;;3.60;;
44440;SDS011;30146;52.268;20.944;2023-04-15T12:17:01;3.60;;;3.20;;
44440;SDS011;30146;52.268;20.944;2023-04-15T12:19:47;4.80;;;3.60;;
44440;SDS011;30146;52.268;20.944;2023-04-15T12:22:25;8.10;;;4.20;;
44440;SDS011;30146;52.268;20.944;2023-04-15T12:24:56;3.50;;;3.00;;
44440;SDS011;30146;52.268;20.944;2023-04-15T12:27:30;6.10;;;3.60;;
44440;SDS011;30146;52.268;20.944;2023-04-15T12:30:07;4.60;;;3.30;;
44440;SDS011;30146;52.268;20.944;2023-04-15T12:32:39;5.70;;;4.00;;
44440;SDS011;30146;52.268;20.944;2023-04-15T12:35:14;5.90;;;4.60;;
44440;SDS011;30146;52.268;20.944;2023-04-15T12:37:48;5.80;;;3.90;;
44440;SDS011;30146;52.268;20.944;2023-04-15T12:40:20;4.80;;;3.10;;
44440;SDS011;30146;52.268;20.944;2023-04-15T12:42:54;4.80;;;3.20;;
44440;SDS011;30146;52.268;20.944;2023-04-15T12:45:33;7.90;;;3.80;;
44440;SDS011;30146;52.268;20.944;2023-04-15T12:48:07;4.20;;;3.40;;
44440;SDS011;30146;52.268;20.944;2023-04-15T12:50:38;4.30;;;3.70;;
44440;SDS011;30146;52.268;20.944;2023-04-15T12:53:15;4.80;;;4.00;;
44440;SDS011;30146;52.268;20.944;2023-04-15T12:55:50;4.90;;;3.70;;
44440;SDS011;30146;52.268;20.944;2023-04-15T12:58:24;11.00;;;4.20;;
44440;SDS011;30146;52.268;20.944;2023-04-15T13:00:56;4.30;;;3.60;;
44440;SDS011;30146;52.268;20.944;2023-04-15T13:06:30;6.30;;;4.00;;
44440;SDS011;30146;52.268;20.944;2023-04-15T13:09:02;6.40;;;3.90;;
44440;SDS011;30146;52.268;20.944;2023-04-15T13:11:33;7.20;;;4.30;;
44440;SDS011;30146;52.268;20.944;2023-04-15T13:14:05;6.90;;;4.90;;
44440;SDS011;30146;52.268;20.944;2023-04-15T13:16:42;4.90;;;3.70;;
44440;SDS011;30146;52.268;20.944;2023-04-15T13:19:14;5.90;;;4.50;;
44440;SDS011;30146;52.268;20.944;2023-04-15T13:21:45;6.10;;;4.20;;
44440;SDS011;30146;52.268;20.944;2023-04-15T13:24:16;9.00;;;3.40;;
44440;SDS011;30146;52.268;20.944;2023-04-15T13:26:50;8.40;;;4.10;;
44440;SDS011;30146;52.268;20.944;2023-04-15T13:29:22;4.60;;;4.00;;
44440;SDS011;30146;52.268;20.944;2023-04-15T13:31:53;6.00;;;3.70;;
44440;SDS011;30146;52.268;20.944;2023-04-15T13:34:24;6.90;;;3.90;;
44440;SDS011;30146;52.268;20.944;2023-04-15T13:36:57;4.50;;;3.40;;
44440;SDS011;30146;52.268;20.944;2023-04-15T13:39:34;5.10;;;3.50;;
44440;SDS011;30146;52.268;20.944;2023-04-15T13:42:06;5.40;;;3.90;;
44440;SDS011;30146;52.268;20.944;2023-04-15T13:44:37;6.00;;;2.90;;
44440;SDS011;30146;52.268;20.944;2023-04-15T13:47:09;4.40;;;3.00;;
44440;SDS011;30146;52.268;20.944;2023-04-15T13:49:44;3.90;;;2.70;;
44440;SDS011;30146;52.268;20.944;2023-04-15T13:52:15;3.40;;;2.50;;
44440;SDS011;30146;52.268;20.944;2023-04-15T13:54:47;3.50;;;2.60;;
44440;SDS011;30146;52.268;20.944;2023-04-15T13:57:39;3.70;;;2.80;;
44440;SDS011;30146;52.268;20.944;2023-04-15T14:00:12;4.00;;;2.50;;
44440;SDS011;30146;52.268;20.944;2023-04-15T14:02:44;5.90;;;3.50;;
44440;SDS011;30146;52.268;20.944;2023-04-15T14:05:16;5.20;;;3.30;;
44440;SDS011;30146;52.268;20.944;2023-04-15T14:07:47;3.20;;;2.60;;
44440;SDS011;30146;52.268;20.944;2023-04-15T14:10:18;3.90;;;1.90;;
44440;SDS011;30146;52.268;20.944;2023-04-15T14:12:49;3.10;;;2.60;;
44440;SDS011;30146;52.268;20.944;2023-04-15T14:15:21;3.50;;;2.50;;
44440;SDS011;30146;52.268;20.944;2023-04-15T14:17:57;6.00;;;2.80;;
44440;SDS011;30146;52.268;20.944;2023-04-15T14:20:30;4.10;;;2.80;;
44440;SDS011;30146;52.268;20.944;2023-04-15T14:23:01;4.40;;;3.20;;
44440;SDS011;30146;52.268;20.944;2023-04-15T14:25:33;6.50;;;3.40;;
44440;SDS011;30146;52.268;20.944;2023-04-15T14:28:15;5.30;;;4.00;;
44440;SDS011;30146;52.268;20.944;2023-04-15T14:30:47;3.70;;;2.90;;
44440;SDS011;30146;52.268;20.944;2023-04-15T14:33:18;5.30;;;3.50;;
44440;SDS011;30146;52.268;20.944;2023-04-15T14:35:50;5.40;;;3.40;;
44440;SDS011;30146;52.268;20.944;2023-04-15T14:38:22;9.70;;;3.30;;
44440;SDS011;30146;52.268;20.944;2023-04-15T14:40:56;4.90;;;3.70;;
44440;SDS011;30146;52.268;20.944;2023-04-15T14:43:28;4.20;;;3.00;;
44440;SDS011;30146;52.268;20.944;2023-04-15T14:46:00;5.00;;;3.30;;
44440;SDS011;30146;52.268;20.944;2023-04-15T14:48:32;3.30;;;2.60;;
44440;SDS011;30146;52.268;20.944;2023-04-15T14:51:03;7.90;;;2.50;;
44440;SDS011;30146;52.268;20.944;2023-04-15T14:53:36;4.30;;;2.40;;
44440;SDS011;30146;52.268;20.944;2023-04-15T14:56:07;3.00;;;2.60;;
44440;SDS011;30146;52.268;20.944;2023-04-15T14:58:39;2.70;;;2.20;;
44440;SDS011;30146;52.268;20.944;2023-04-15T15:01:10;3.70;;;2.50;;
44440;SDS011;30146;52.268;20.944;2023-04-15T15:03:41;3.40;;;2.50;;
44440;SDS011;30146;52.268;20.944;2023-04-15T15:06:13;8.00;;;2.20;;
44440;SDS011;30146;52.268;20.944;2023-04-15T15:08:48;3.20;;;2.10;;
44440;SDS011;30146;52.268;20.944;2023-04-15T15:11:19;4.00;;;2.40;;
44440;SDS011;30146;52.268;20.944;2023-04-15T15:13:51;2.90;;;2.30;;
44440;SDS011;30146;52.268;20.944;2023-04-15T15:16:22;3.40;;;2.40;;
44440;SDS011;30146;52.268;20.944;2023-04-15T15:18:54;2.70;;;2.40;;
44440;SDS011;30146;52.268;20.944;2023-04-15T15:21:25;2.60;;;2.40;;
44440;SDS011;30146;52.268;20.944;2023-04-15T15:23:57;5.00;;;2.50;;
44440;SDS011;30146;52.268;20.944;2023-04-15T15:26:29;3.40;;;2.60;;
44440;SDS011;30146;52.268;20.944;2023-04-15T15:29:00;4.30;;;2.60;;
44440;SDS011;30146;52.268;20.944;2023-04-15T15:31:32;2.90;;;2.60;;
44440;SDS011;30146;52.268;20.944;2023-04-15T15:34:04;4.40;;;2.60;;
44440;SDS011;30146;52.268;20.944;2023-04-15T15:36:36;5.00;;;2.70;;
44440;SDS011;30146;52.268;20.944;2023-04-15T15:39:07;3.00;;;2.40;;
44440;SDS011;30146;52.268;20.944;2023-04-15T15:41:38;5.40;;;2.30;;
44440;SDS011;30146;52.268;20.944;2023-04-15T15:44:14;4.50;;;2.80;;
44440;SDS011;30146;52.268;20.944;2023-04-15T15:46:49;3.90;;;3.00;;
44440;SDS011;30146;52.268;20.944;2023-04-15T15:49:20;3.50;;;2.30;;
44440;SDS011;30146;52.268;20.944;2023-04-15T15:51:52;3.10;;;2.20;;
44440;SDS011;30146;52.268;20.944;2023-04-15T15:54:24;3.00;;;2.20;;
44440;SDS011;30146;52.268;20.944;2023-04-15T15:57:00;3.00;;;2.20;;
44440;SDS011;30146;52.268;20.944;2023-04-15T15:59:32;2.60;;;2.20;;
44440;SDS011;30146;52.268;20.944;2023-04-15T16:02:09;2.60;;;2.10;;
44440;SDS011;30146;52.268;20.944;2023-04-15T16:04:41;3.60;;;2.10;;
44440;SDS011;30146;52.268;20.944;2023-04-15T16:07:12;2.70;;;2.30;;
44440;SDS011;30146;52.268;20.944;2023-04-15T16:09:44;3.30;;;2.20;;
44440;SDS011;30146;52.268;20.944;2023-04-15T16:12:37;3.20;;;2.30;;
44440;SDS011;30146;52.268;20.944;2023-04-15T16:15:10;2.00;;;1.80;;
44440;SDS011;30146;52.268;20.944;2023-04-15T16:17:43;3.10;;;2.40;;